LECO 200130Z AUTO 00000KT 9999 BKN010 15/13 Q1020 LECO 200100Z AUTO VRB02KT 9999 BKN011 15/13 Q1020 LECO 200030Z AUTO VRB02KT 9999 SCT011 15/13 Q1019 LECO 200000Z AUTO 15003KT 100V240 9999 BKN011 15/13 Q1019 LECO 192330Z AUTO VRB01KT 9999 BKN010 15/13 Q1020 LECO 192300Z 00000KT 9999 FEW010 15/13 Q1020 NOSIG LECO 192230Z VRB02KT 9999 FEW010 15/13 Q1019 NOSIG LECO 192200Z VRB01KT 9999 FEW010 15/13 Q1019 NOSIG LECO 192130Z 00000KT 9999 FEW010 15/13 Q1019 NOSIG LECO 192100Z VRB02KT 9999 FEW010 15/13 Q1019 NOSIG LECO 192030Z 28004KT 240V340 9999 FEW010 15/13 Q1019 NOSIG LECO 192000Z 29003KT 240V340 9999 FEW010 15/13 Q1018 NOSIG LECO 191930Z 32003KT 200V010 9999 FEW010 16/13 Q1018 NOSIG LECO 191900Z 31004KT 250V360 9999 FEW010 16/13 Q1018 NOSIG LECO 191830Z 31007KT 250V010 9999 FEW010 17/13 Q1018 NOSIG LECO 191800Z 31006KT 250V350 9999 FEW010 17/14 Q1018 NOSIG LECO 191730Z 29007KT 230V350 9999 FEW015 17/13 Q1018 NOSIG LECO 191700Z 30007KT 230V350 9999 SCT015 18/14 Q1018 NOSIG LECO 191630Z 30006KT 240V010 9999 SCT011 18/14 Q1018 NOSIG LECO 191600Z 32008KT 250V350 9999 FEW016 18/14 Q1018 NOSIG LECO 191530Z 32009KT 290V010 CAVOK 19/14 Q1018 NOSIG LECO 191500Z 32008KT 250V020 CAVOK 18/14 Q1018 NOSIG LECO 191430Z 30007KT 260V010 CAVOK 19/14 Q1019 NOSIG LECO 191400Z 31007KT 240V010 CAVOK 19/14 Q1019 NOSIG LECO 191330Z 33008KT 270V020 9999 FEW020 19/14 Q1019 NOSIG LECO 191300Z 32006KT 250V010 9999 FEW020 19/15 Q1019 NOSIG LECO 191230Z 36008KT 290V060 9999 SCT010 18/14 Q1019 NOSIG LECO 191200Z 36008KT 320V050 9999 FEW010 18/13 Q1019 NOSIG LECO 191130Z 36007KT 270V060 9999 FEW020 18/13 Q1019 NOSIG LECO 191100Z 35007KT 300V050 9999 FEW020 18/13 Q1019 NOSIG LECO 191030Z 01007KT 290V060 CAVOK 18/12 Q1019 NOSIG LECO 191000Z 35005KT 300V050 CAVOK 18/12 Q1019 NOSIG LECO 190930Z 33005KT 290V010 CAVOK 17/12 Q1019 NOSIG LECO 190900Z 35004KT 290V030 CAVOK 17/12 Q1019 NOSIG LECO 190830Z VRB02KT 9999 FEW025 16/12 Q1019 NOSIG LECO 190800Z 00000KT CAVOK 15/14 Q1019 NOSIG LECO 190730Z VRB02KT 7000 1000SE R21/P2000 R03/0600U BCFG NSC 13/13 Q1019 NOSIG LECO 190700Z VRB02KT 3000 0500SE R21/P2000 R03/0325N BCFG NSC 12/11 Q1020 NOSIG LECO 190630Z 17003KT 0200 R21/0550D R03/0250N FG SCT004 11/11 Q1020 NOSIG LECO 190600Z 15004KT 0200 R21/0550N R03/0250D FG SCT001 10/10 Q1020 NOSIG LECO 190530Z 16004KT 0200 R21/0750N R03/0450D FG FEW001 10/10 Q1019 NOSIG LECO 190500Z 16004KT 090V190 0150 R21/0650N R03/0350N FG SCT001 10/10 Q1019 NOSIG LECO 190430Z 17004KT 0200 R21/1300D R03/0700D FG NSC 10/10 Q1019 NOSIG LECO 190411Z 16004KT 0500 R21/0750D R03/P2000 FG SCT015 11/10 Q1019 TEMPO 0300 VV001 LECO 190400Z 17003KT 9000 2000SE BCFG SCT015 11/11 Q1019 NOSIG LECO 190330Z VRB02KT 8000 NSC 12/11 Q1019 NOSIG LECO 190300Z AUTO 21001KT 9000 2900 NCD 12/11 Q1019 LECO 190230Z AUTO VRB01KT CAVOK 12/11 Q1019 LECO 190200Z AUTO 16003KT 120V190 CAVOK 12/11 Q1019 LECO 190130Z AUTO 17003KT CAVOK 12/11 Q1019 LECO 190100Z AUTO 17003KT CAVOK 13/11 Q1019 LECO 190030Z AUTO VRB02KT CAVOK 13/12 Q1019 LECO 190000Z AUTO 19002KT CAVOK 14/12 Q1020 LECO 182330Z AUTO VRB02KT 9999 FEW017 14/12 Q1020 LECO 182300Z VRB02KT 9999 SCT016 14/12 Q1020 NOSIG LECO 182230Z VRB01KT CAVOK 14/12 Q1020 NOSIG LECO 182200Z 18003KT 9999 FEW015 14/12 Q1020 NOSIG LECO 182130Z 16004KT CAVOK 15/13 Q1020 NOSIG LECO 182100Z 16004KT CAVOK 15/13 Q1019 NOSIG LECO 182030Z 15004KT CAVOK 15/13 Q1019 NOSIG LECO 182000Z VRB02KT 9999 FEW048 16/12 Q1019 NOSIG LECO 181930Z VRB03KT 9999 FEW046 16/13 Q1019 NOSIG LECO 181900Z 34003KT 280V070 9999 BKN046 17/12 Q1019 NOSIG LECO 181830Z VRB04KT 9999 SCT047 17/12 Q1018 NOSIG LECO 181800Z 33006KT 290V010 9999 SCT048 18/12 Q1018 NOSIG LECO 181730Z 32008KT 290V010 9999 SCT048 18/12 Q1018 NOSIG LECO 181700Z 34006KT 290V020 9999 FEW045 18/11 Q1018 NOSIG LECO 181630Z 31005KT 250V020 9999 SCT048 18/11 Q1018 NOSIG LECO 181600Z 32007KT 280V010 9999 SCT048 19/11 Q1018 NOSIG LECO 181530Z 33005KT 270V020 9999 SCT048 19/11 Q1018 NOSIG LECO 181500Z 32005KT 270V010 9999 SCT048 19/11 Q1018 NOSIG LECO 181430Z 36005KT 320V040 9999 FEW043 19/12 Q1018 NOSIG LECO 181400Z 36005KT 320V030 9999 FEW043 19/12 Q1018 NOSIG

METAR Messwerte "LA CORUNA/ALVEDR" LECO

Zurück zur Übersicht

Ortsname
Ländercode / m ü. NN
Zeit Temperatur Taupunkt Rel.
Luftfeuchte
Luftdruck:
Altimeter
NN
Station
Wind in Beaufort
(Knoten)
Sichtweite
(Meter)
Wolken
(Meter über Grund)
Wettererscheinung
LA CORUNA/ALVEDR
ES 80
Fr 20.05. 03:30151388 %1020
1020
1010
Windstill>= 10000Stark bewölkt (300) 
LA CORUNA/ALVEDR
ES 80
Fr 20.05. 03:00151388 %1020
1020
1010
Uml 1 (2)>= 10000Stark bewölkt (340) 
LA CORUNA/ALVEDR
ES 80
Fr 20.05. 02:30151388 %1019
1019
1009
Uml 1 (2)>= 10000Wolkig (340) 
LA CORUNA/ALVEDR
ES 80
Fr 20.05. 02:00151388 %1019
1019
1009
SSO 2 (3)
O - WSW
>= 10000Stark bewölkt (340) 
LA CORUNA/ALVEDR
ES 80
Fr 20.05. 01:30151388 %1020
1020
1010
Uml 1 (1)>= 10000Stark bewölkt (300) 
LA CORUNA/ALVEDR
ES 80
Fr 20.05. 01:00151388 %1020
1020
1010
Windstill>= 10000Leicht bewölkt (300) 
LA CORUNA/ALVEDR
ES 80
Fr 20.05. 00:30151388 %1019
1019
1009
Uml 1 (2)>= 10000Leicht bewölkt (300) 
LA CORUNA/ALVEDR
ES 80
Fr 20.05. 00:00151388 %1019
1019
1009
Uml 1 (1)>= 10000Leicht bewölkt (300) 
LA CORUNA/ALVEDR
ES 80
Do 19.05. 23:30151388 %1019
1019
1009
Windstill>= 10000Leicht bewölkt (300) 
LA CORUNA/ALVEDR
ES 80
Do 19.05. 23:00151388 %1019
1019
1009
Uml 1 (2)>= 10000Leicht bewölkt (300) 
LA CORUNA/ALVEDR
ES 80
Do 19.05. 22:30151388 %1019
1019
1009
W 2 (4)
WSW - NNW
>= 10000Leicht bewölkt (300) 
LA CORUNA/ALVEDR
ES 80
Do 19.05. 22:00151388 %1018
1018
1008
WNW 2 (3)
WSW - NNW
>= 10000Leicht bewölkt (300) 
LA CORUNA/ALVEDR
ES 80
Do 19.05. 21:30161382 %1018
1018
1008
NW 2 (3)
SSW - N
>= 10000Leicht bewölkt (300) 
LA CORUNA/ALVEDR
ES 80
Do 19.05. 21:00161382 %1018
1018
1008
NW 2 (4)
WSW - N
>= 10000Leicht bewölkt (300) 
LA CORUNA/ALVEDR
ES 80
Do 19.05. 20:30171377 %1018
1018
1008
NW 3 (7)
WSW - N
>= 10000Leicht bewölkt (300) 
LA CORUNA/ALVEDR
ES 80
Do 19.05. 20:00171482 %1018
1018
1008
NW 2 (6)
WSW - N
>= 10000Leicht bewölkt (300) 
LA CORUNA/ALVEDR
ES 80
Do 19.05. 19:30171377 %1018
1018
1008
WNW 3 (7)
SW - N
>= 10000Leicht bewölkt (460) 
LA CORUNA/ALVEDR
ES 80
Do 19.05. 19:00181477 %1018
1018
1008
WNW 3 (7)
SW - N
>= 10000Wolkig (460) 
LA CORUNA/ALVEDR
ES 80
Do 19.05. 18:30181477 %1018
1018
1008
WNW 2 (6)
WSW - N
>= 10000Wolkig (340) 
LA CORUNA/ALVEDR
ES 80
Do 19.05. 18:00181477 %1018
1018
1008
NW 3 (8)
WSW - N
>= 10000Leicht bewölkt (490) 
LA CORUNA/ALVEDR
ES 80
Do 19.05. 17:30191473 %1018
1018
1008
NW 3 (9)
WNW - N
>= 10000Nicht signifikant 
LA CORUNA/ALVEDR
ES 80
Do 19.05. 17:00181477 %1018
1018
1008
NW 3 (8)
WSW - NNO
>= 10000Nicht signifikant 
LA CORUNA/ALVEDR
ES 80
Do 19.05. 16:30191473 %1019
1019
1009
WNW 3 (7)
W - N
>= 10000Nicht signifikant 
LA CORUNA/ALVEDR
ES 80
Do 19.05. 16:00191473 %1019
1019
1009
NW 3 (7)
WSW - N
>= 10000Nicht signifikant 
LA CORUNA/ALVEDR
ES 80
Do 19.05. 15:30191473 %1019
1019
1009
NNW 3 (8)
W - NNO
>= 10000Leicht bewölkt (610) 
LA CORUNA/ALVEDR
ES 80
Do 19.05. 15:00191578 %1019
1019
1009
NW 2 (6)
WSW - N
>= 10000Leicht bewölkt (610) 
LA CORUNA/ALVEDR
ES 80
Do 19.05. 14:30181477 %1019
1019
1009
N 3 (8)
WNW - ONO
>= 10000Wolkig (300) 
LA CORUNA/ALVEDR
ES 80
Do 19.05. 14:00181373 %1019
1019
1009
N 3 (8)
NW - NO
>= 10000Leicht bewölkt (300) 
LA CORUNA/ALVEDR
ES 80
Do 19.05. 13:30181373 %1019
1019
1009
N 3 (7)
W - ONO
>= 10000Leicht bewölkt (610) 
LA CORUNA/ALVEDR
ES 80
Do 19.05. 13:00181373 %1019
1019
1009
N 3 (7)
WNW - NO
>= 10000Leicht bewölkt (610) 
LA CORUNA/ALVEDR
ES 80
Do 19.05. 12:30181268 %1019
1019
1009
N 3 (7)
WNW - ONO
>= 10000Nicht signifikant 
LA CORUNA/ALVEDR
ES 80
Do 19.05. 12:00181268 %1019
1019
1009
N 2 (5)
WNW - NO
>= 10000Nicht signifikant 
LA CORUNA/ALVEDR
ES 80
Do 19.05. 11:30171272 %1019
1019
1009
NNW 2 (5)
WNW - N
>= 10000Nicht signifikant 
LA CORUNA/ALVEDR
ES 80
Do 19.05. 11:00171272 %1019
1019
1009
N 2 (4)
WNW - NNO
>= 10000Nicht signifikant 
LA CORUNA/ALVEDR
ES 80
Do 19.05. 10:30161277 %1019
1019
1009
Uml 1 (2)>= 10000Leicht bewölkt (760) 
LA CORUNA/ALVEDR
ES 80
Do 19.05. 10:00151494 %1019
1019
1009
Windstill>= 10000Nicht signifikant 
LA CORUNA/ALVEDR
ES 80
Do 19.05. 09:301313100 %1019
1019
1009
Uml 1 (2)7000Nicht signifikantNebel-Bänke
LA CORUNA/ALVEDR
ES 80
Do 19.05. 09:00121194 %1020
1020
1010
Uml 1 (2)3000Nicht signifikantNebel-Bänke
LA CORUNA/ALVEDR
ES 80
Do 19.05. 08:301111100 %1020
1020
1010
S 2 (3)200Wolkig (120)Nebel
LA CORUNA/ALVEDR
ES 80
Do 19.05. 08:001010100 %1020
1020
1010
SSO 2 (4)200Wolkig (30)Nebel
LA CORUNA/ALVEDR
ES 80
Do 19.05. 07:301010100 %1019
1019
1009
SSO 2 (4)200Leicht bewölkt (30)Nebel
LA CORUNA/ALVEDR
ES 80
Do 19.05. 07:001010100 %1019
1019
1009
SSO 2 (4)
O - S
150Wolkig (30)Nebel
LA CORUNA/ALVEDR
ES 80
Do 19.05. 06:301010100 %1019
1019
1009
S 2 (4)200Nicht signifikantNebel
LA CORUNA/ALVEDR
ES 80
Do 19.05. 06:11111094 %1019
1019
1009
SSO 2 (4)500
Bald zeitweise: 300
Wolkig (460)Nebel
LA CORUNA/ALVEDR
ES 80
Do 19.05. 06:001111100 %1019
1019
1009
S 2 (3)9000Wolkig (460)Nebel-Bänke
LA CORUNA/ALVEDR
ES 80
Do 19.05. 05:30121194 %1019
1019
1009
Uml 1 (2)8000Nicht signifikant 
LA CORUNA/ALVEDR
ES 80
Do 19.05. 05:00121194 %1019
1019
1009
SSW 1 (1)9000  
LA CORUNA/ALVEDR
ES 80
Do 19.05. 04:30121194 %1019
1019
1009
Uml 1 (1)>= 10000Nicht signifikant 
LA CORUNA/ALVEDR
ES 80
Do 19.05. 04:00121194 %1019
1019
1009
SSO 2 (3)
OSO - S
>= 10000Nicht signifikant 
LA CORUNA/ALVEDR
ES 80
Do 19.05. 03:30121194 %1019
1019
1009
S 2 (3)>= 10000Nicht signifikant 
LA CORUNA/ALVEDR
ES 80
Do 19.05. 03:00131188 %1019
1019
1009
S 2 (3)>= 10000Nicht signifikant 
LA CORUNA/ALVEDR
ES 80
Do 19.05. 02:30131294 %1019
1019
1009
Uml 1 (2)>= 10000Nicht signifikant 
LA CORUNA/ALVEDR
ES 80
Do 19.05. 02:00141288 %1020
1020
1010
S 1 (2)>= 10000Nicht signifikant 
LA CORUNA/ALVEDR
ES 80
Do 19.05. 01:30141288 %1020
1020
1010
Uml 1 (2)>= 10000Leicht bewölkt (520) 
LA CORUNA/ALVEDR
ES 80
Do 19.05. 01:00141288 %1020
1020
1010
Uml 1 (2)>= 10000Wolkig (490) 
LA CORUNA/ALVEDR
ES 80
Do 19.05. 00:30141288 %1020
1020
1010
Uml 1 (1)>= 10000Nicht signifikant 
LA CORUNA/ALVEDR
ES 80
Do 19.05. 00:00141288 %1020
1020
1010
S 2 (3)>= 10000Leicht bewölkt (460) 
LA CORUNA/ALVEDR
ES 80
Mi 18.05. 23:30151388 %1020
1020
1010
SSO 2 (4)>= 10000Nicht signifikant 
LA CORUNA/ALVEDR
ES 80
Mi 18.05. 23:00151388 %1019
1019
1009
SSO 2 (4)>= 10000Nicht signifikant 
LA CORUNA/ALVEDR
ES 80
Mi 18.05. 22:30151388 %1019
1019
1009
SSO 2 (4)>= 10000Nicht signifikant 
LA CORUNA/ALVEDR
ES 80
Mi 18.05. 22:00161277 %1019
1019
1009
Uml 1 (2)>= 10000Leicht bewölkt (1500) 
LA CORUNA/ALVEDR
ES 80
Mi 18.05. 21:30161382 %1019
1019
1009
Uml 2 (3)>= 10000Leicht bewölkt (1400) 
LA CORUNA/ALVEDR
ES 80
Mi 18.05. 21:00171272 %1019
1019
1009
NNW 2 (3)
W - ONO
>= 10000Stark bewölkt (1400) 
LA CORUNA/ALVEDR
ES 80
Mi 18.05. 20:30171272 %1018
1018
1008
Uml 2 (4)>= 10000Wolkig (1400) 
LA CORUNA/ALVEDR
ES 80
Mi 18.05. 20:00181268 %1018
1018
1008
NNW 2 (6)
WNW - N
>= 10000Wolkig (1500) 
LA CORUNA/ALVEDR
ES 80
Mi 18.05. 19:30181268 %1018
1018
1008
NW 3 (8)
WNW - N
>= 10000Wolkig (1500) 
LA CORUNA/ALVEDR
ES 80
Mi 18.05. 19:00181164 %1018
1018
1008
NNW 2 (6)
WNW - NNO
>= 10000Leicht bewölkt (1400) 
LA CORUNA/ALVEDR
ES 80
Mi 18.05. 18:30181164 %1018
1018
1008
NW 2 (5)
WSW - NNO
>= 10000Wolkig (1500) 
LA CORUNA/ALVEDR
ES 80
Mi 18.05. 18:00191160 %1018
1018
1008
NW 3 (7)
W - N
>= 10000Wolkig (1500) 
LA CORUNA/ALVEDR
ES 80
Mi 18.05. 17:30191160 %1018
1018
1008
NNW 2 (5)
W - NNO
>= 10000Wolkig (1500) 
LA CORUNA/ALVEDR
ES 80
Mi 18.05. 17:00191160 %1018
1018
1008
NW 2 (5)
W - N
>= 10000Wolkig (1500) 
LA CORUNA/ALVEDR
ES 80
Mi 18.05. 16:30191264 %1018
1018
1008
N 2 (5)
NW - NO
>= 10000Leicht bewölkt (1300) 
LA CORUNA/ALVEDR
ES 80
Mi 18.05. 16:00191264 %1018
1018
1008
N 2 (5)
NW - NNO
>= 10000Leicht bewölkt (1300) 

Altimeter: Einstellung am Altimeter (Höhenmesser), die Höhe 0 muss auf diesen Luftdruckwert zeigen, damit das Gerät die Stationshöhe richtig anzeigt.

NN: Luftdruck reduziert auf "Normal Null", auf Meereshöhe, dieser von der Temperatur abhängige Wert wird bisweilen unkorrekt einfach als "Luftdruck" bezeichnet. Eigentlich nur eine fiktive Größe, die es erlaubt, Stationen auf unterschiedlichen Höhen miteinander zu vergleichen.

Station: Realer Luftdruck an der Station.